KCLL

Easterwood Field Airport

College Station, Texas, USA
METAR KCLL 240153Z 16006KT 10SM CLR 25/21 A3001 RMK AO2 SLP156 T02500211
Observed Flight Rules
May-24 @ 01:53 UTC (22 minutes ago) Visual Flight Rules
Wind Visibility Clouds
160° at 6 knots 10 miles
  • Clear skies
Temperatures Readings
Current 25°C / 77°F
Dewpoint 21°C / 70°F
Humidity 79%
Altimeter 30.01" Hg
Pressure 1015.6 hPa
Elevation 96
METAR KCLL 240153Z 16006KT 10SM CLR 25/21 A3001 RMK AO2 SLP156 T02500211
Observed Flight Rules
May-24 @ 01:53 UTC
(22 minutes ago)
VFR
Wind Visibility
160° at 6 knots 10 miles
Clouds
  • Clear skies
Temperature Dewpoint
25°C / 77°F 21°C / 70°F
Humidity Altimeter Pressure
79% 30.01" Hg 1015.6 hPa